Time;durP1;ratioP1;P1;durP2;ratioP2;P2;SDS_P1;SDS_P2;PMS_P1;PMS_P2;Temp;Humidity;BMP_temperature;BMP_pressure;BME280_temperature;BME280_humidity;BME280_pressure;Samples;Min_cycle;Max_cycle;Signal;HPM_P1;HPM_P2
2022/03/25 02:44:05;;;;;;;9.18;4.00;;;;;;;6.22;34.48;95203.22;5070513;23;20447;-88
2022/03/25 02:46:30;;;;;;;10.32;4.05;;;;;;;5.85;35.33;95203.19;4946993;28;20065;-87
2022/03/25 02:49:37;;;;;;;6.85;3.60;;;;;;;5.90;35.29;95205.94;4961969;28;20031;-87
2022/03/25 02:52:32;;;;;;;11.15;4.75;;;;;;;5.73;35.58;95201.28;4965661;28;20478;-87
2022/03/25 02:57:58;;;;;;;8.40;3.67;;;;;;;5.55;35.45;95202.09;4919353;29;20040;-87
2022/03/25 03:00:26;;;;;;;7.90;3.88;;;;;;;5.67;34.96;95196.97;4963006;28;20038;-87
2022/03/25 03:03:00;;;;;;;9.45;4.10;;;;;;;5.70;36.05;95201.72;4940326;28;20027;-90
2022/03/25 03:05:27;;;;;;;14.48;4.85;;;;;;;5.75;35.67;95201.09;4933592;28;20078;-87
2022/03/25 03:07:52;;;;;;;8.10;4.43;;;;;;;5.85;34.94;95196.19;4943460;29;20038;-88
2022/03/25 03:10:18;;;;;;;9.55;4.00;;;;;;;5.96;35.06;95199.88;4942089;29;20031;-87
2022/03/25 03:12:43;;;;;;;10.25;4.18;;;;;;;6.09;35.32;95198.94;4926894;29;20031;-88
2022/03/25 03:15:10;;;;;;;8.23;4.10;;;;;;;5.85;35.25;95198.78;4942451;29;20445;-90
2022/03/25 03:17:35;;;;;;;9.88;4.40;;;;;;;5.80;36.03;95199.44;4942199;29;20041;-90
2022/03/25 03:20:02;;;;;;;13.05;4.25;;;;;;;5.84;36.36;95202.41;4958669;29;20031;-88
2022/03/25 03:22:27;;;;;;;11.52;4.38;;;;;;;5.76;35.51;95198.28;4942494;29;20042;-87
2022/03/25 03:24:53;;;;;;;9.20;4.43;;;;;;;5.81;35.04;95202.84;4926092;29;20035;-88
2022/03/25 03:27:19;;;;;;;12.10;4.50;;;;;;;5.69;36.00;95192.34;4942305;29;20314;-88
2022/03/25 03:29:45;;;;;;;9.60;4.35;;;;;;;5.60;36.00;95198.84;4926093;29;20023;-88
2022/03/25 03:32:10;;;;;;;10.10;4.47;;;;;;;5.61;35.50;95198.63;4930509;29;20031;-88
2022/03/25 03:34:36;;;;;;;8.50;4.20;;;;;;;5.73;35.13;95196.09;4959441;29;20336;-88
2022/03/25 03:37:02;;;;;;;11.68;4.00;;;;;;;5.80;35.41;95203.81;4942077;29;20031;-88
2022/03/25 03:39:28;;;;;;;6.70;3.90;;;;;;;5.77;35.18;95196.47;4941912;29;20352;-88
2022/03/25 03:41:53;;;;;;;10.38;4.25;;;;;;;5.91;35.19;95199.72;4941730;29;20031;-88
2022/03/25 03:44:18;;;;;;;10.43;4.80;;;;;;;6.04;35.13;95197.03;4926481;29;20038;-87
2022/03/25 03:46:44;;;;;;;11.27;4.13;;;;;;;6.26;34.36;95201.75;4941928;29;20049;-88
2022/03/25 03:49:10;;;;;;;9.00;4.20;;;;;;;6.18;34.89;95196.88;4926311;29;20031;-88
2022/03/25 03:51:36;;;;;;;7.38;4.28;;;;;;;6.15;34.60;95202.47;4958603;29;20117;-88
2022/03/25 03:54:01;;;;;;;10.55;4.80;;;;;;;6.26;34.44;95204.34;4941832;29;20468;-88
2022/03/25 03:56:27;;;;;;;9.05;4.50;;;;;;;6.45;33.88;95204.31;4942020;29;20475;-88
2022/03/25 03:58:53;;;;;;;6.95;3.55;;;;;;;6.38;34.57;95203.63;4926065;29;20031;-87
2022/03/25 04:01:18;;;;;;;10.40;3.75;;;;;;;6.36;34.22;95201.22;4941338;29;20055;-88
2022/03/25 04:03:44;;;;;;;7.47;3.97;;;;;;;5.97;36.40;95200.69;4959153;28;20031;-88
2022/03/25 04:06:09;;;;;;;6.35;4.05;;;;;;;5.78;35.82;95201.47;4959051;29;20113;-88
2022/03/25 04:08:38;;;;;;;6.82;3.88;;;;;;;5.66;35.94;95203.97;4959102;29;20035;-88
2022/03/25 04:11:04;;;;;;;8.32;3.30;;;;;;;5.79;34.86;95204.84;4941036;29;20085;-87
2022/03/25 04:13:29;;;;;;;7.60;3.60;;;;;;;6.03;34.41;95208.44;4925536;29;20059;-88
2022/03/25 04:15:55;;;;;;;8.27;3.25;;;;;;;6.47;33.44;95208.31;4925981;29;20058;-87
2022/03/25 04:18:42;;;;;;;6.93;3.30;;;;;;;6.15;33.64;95213.69;4958574;29;20031;-88
2022/03/25 04:21:08;;;;;;;9.02;3.88;;;;;;;6.30;33.40;95209.94;4960292;28;20035;-88
2022/03/25 04:23:36;;;;;;;8.32;3.67;;;;;;;6.68;32.80;95208.03;4944027;28;20027;-88
2022/03/25 04:26:02;;;;;;;7.13;3.38;;;;;;;6.70;32.53;95211.22;4960716;28;20030;-88
2022/03/25 04:28:37;;;;;;;6.78;3.75;;;;;;;6.81;32.13;95217.47;4960766;28;20035;-90
2022/03/25 04:31:02;;;;;;;7.82;3.80;;;;;;;6.85;31.96;95209.00;4960139;28;20432;-88
2022/03/25 04:33:31;;;;;;;8.35;3.70;;;;;;;7.00;31.90;95211.19;4978106;28;20081;-87
2022/03/25 04:35:59;;;;;;;5.75;3.38;;;;;;;7.22;31.24;95205.44;4945218;28;20027;-87
2022/03/25 04:38:25;;;;;;;6.00;3.58;;;;;;;6.97;31.89;95203.03;4961139;28;20038;-88
2022/03/25 04:40:50;;;;;;;7.00;3.65;;;;;;;7.00;31.30;95210.38;4977705;28;20432;-88
2022/03/25 04:43:15;;;;;;;8.05;3.60;;;;;;;7.13;31.09;95206.81;4944781;28;20030;-87
2022/03/25 04:45:41;;;;;;;6.00;3.13;;;;;;;6.71;32.03;95211.00;4960604;28;20316;-87
2022/03/25 04:48:10;;;;;;;10.73;3.30;;;;;;;6.31;33.66;95217.53;4960895;28;20042;-88
2022/03/25 04:50:38;;;;;;;9.32;3.45;;;;;;;6.06;33.26;95217.59;4960493;28;20031;-88
2022/03/25 04:53:05;;;;;;;7.85;3.38;;;;;;;5.89;34.16;95225.16;4978034;28;20399;-88
2022/03/25 04:55:30;;;;;;;7.70;3.40;;;;;;;5.64;34.21;95220.81;4960470;28;20078;-88
2022/03/25 04:57:56;;;;;;;8.13;3.88;;;;;;;5.59;35.27;95220.63;4944581;28;20031;-88
2022/03/25 05:00:22;;;;;;;6.53;3.53;;;;;;;5.33;35.93;95219.88;4960169;28;20110;-88
2022/03/25 05:02:47;;;;;;;6.63;3.47;;;;;;;5.16;36.16;95224.78;4960587;28;20034;-88
2022/03/25 05:05:16;;;;;;;8.63;3.88;;;;;;;5.03;36.44;95225.69;4960646;28;20058;-87
2022/03/25 05:07:43;;;;;;;7.22;3.45;;;;;;;5.00;35.73;95228.69;4960730;28;20046;-87
2022/03/25 05:10:10;;;;;;;7.20;3.35;;;;;;;4.92;36.19;95225.34;4959890;28;20037;-87
2022/03/25 05:12:36;;;;;;;8.57;3.60;;;;;;;4.92;35.76;95217.56;4944736;28;20428;-88
2022/03/25 05:15:01;;;;;;;8.15;3.58;;;;;;;4.89;36.10;95224.97;4960335;28;20031;-87
2022/03/25 05:17:26;;;;;;;6.85;3.50;;;;;;;4.99;35.60;95219.31;4977770;28;20034;-87
2022/03/25 05:19:54;;;;;;;6.28;3.22;;;;;;;5.06;35.22;95225.28;4959758;28;20042;-87
2022/03/25 05:22:19;;;;;;;5.68;3.05;;;;;;;5.07;35.60;95232.06;4977418;28;20085;-86
2022/03/25 05:24:45;;;;;;;8.20;3.20;;;;;;;4.99;36.24;95232.28;4979591;28;20443;-86
2022/03/25 05:27:10;;;;;;;10.65;3.60;;;;;;;5.03;35.12;95241.28;4963646;28;20060;-87
2022/03/25 05:29:36;;;;;;;7.50;3.53;;;;;;;4.98;35.17;95236.72;4980976;28;20030;-87
2022/03/25 05:32:01;;;;;;;5.80;3.03;;;;;;;5.54;34.70;95241.28;4963004;28;20329;-87
2022/03/25 05:34:37;;;;;;;;;;;;;;;;;;;;;
2022/03/25 05:37:03;;;;;;;9.60;3.15;;;;;;;5.42;34.79;95241.19;4964551;28;20014;-86
2022/03/25 05:39:28;;;;;;;4.93;2.80;;;;;;;5.45;34.74;95251.97;4980848;28;20487;-86
2022/03/25 05:41:54;;;;;;;6.97;3.50;;;;;;;5.52;33.88;95250.09;4962954;28;20038;-87
2022/03/25 05:44:19;;;;;;;6.95;3.03;;;;;;;5.65;33.79;95248.38;4947309;28;20062;-87
2022/03/25 05:46:45;;;;;;;7.30;3.42;;;;;;;5.94;33.52;95256.53;4963267;28;20042;-86
2022/03/25 05:49:10;;;;;;;9.13;3.00;;;;;;;6.07;33.91;95256.41;4947169;28;20049;-87
2022/03/25 05:51:36;;;;;;;5.95;3.55;;;;;;;6.23;33.38;95255.03;4974247;28;20053;-87
2022/03/25 05:54:01;;;;;;;7.50;3.58;;;;;;;5.99;37.64;95261.06;4957861;28;20027;-87
2022/03/25 05:56:27;;;;;;;8.20;3.00;;;;;;;6.02;36.11;95264.06;4961398;28;20515;-87
2022/03/25 05:58:56;;;;;;;6.53;3.10;;;;;;;6.12;35.92;95266.19;4959980;29;20341;-87
2022/03/25 06:01:22;;;;;;;8.75;3.20;;;;;;;6.26;33.41;95269.41;4960792;29;20046;-87
2022/03/25 06:03:47;;;;;;;7.03;3.13;;;;;;;6.36;33.38;95261.09;4943983;29;20031;-87
2022/03/25 06:06:14;;;;;;;5.70;3.10;;;;;;;6.45;35.17;95265.00;4959724;29;20039;-88
2022/03/25 06:08:39;;;;;;;8.73;2.80;;;;;;;6.42;37.27;95260.25;4959878;28;20031;-87
2022/03/25 06:11:05;;;;;;;6.72;3.13;;;;;;;6.52;35.62;95264.94;4943107;29;20451;-87
2022/03/25 06:13:31;;;;;;;7.22;3.17;;;;;;;6.67;33.62;95268.97;4943809;29;20038;-87
2022/03/25 06:15:56;;;;;;;7.00;3.20;;;;;;;6.84;33.76;95269.16;4960040;29;20059;-87
2022/03/25 06:18:22;;;;;;;9.20;3.10;;;;;;;7.09;37.09;95269.00;4959452;29;20027;-87
2022/03/25 06:20:48;;;;;;;6.68;3.25;;;;;;;7.24;34.44;95276.38;4943485;29;20348;-86
2022/03/25 06:23:13;;;;;;;5.13;3.05;;;;;;;7.39;32.53;95268.16;4959277;28;20046;-87
2022/03/25 06:25:40;;;;;;;4.90;3.00;;;;;;;7.56;32.55;95270.91;4943419;29;20054;-87
2022/03/25 06:28:07;;;;;;;7.40;2.90;;;;;;;7.65;33.77;95271.38;4943405;29;20027;-87
2022/03/25 06:30:37;;;;;;;9.55;3.45;;;;;;;7.68;33.30;95262.31;4959165;28;20045;-87
2022/03/25 06:33:11;;;;;;;7.28;3.30;;;;;;;7.85;33.69;95276.25;4943127;29;20023;-86
2022/03/25 06:35:39;;;;;;;6.13;2.95;;;;;;;7.92;33.10;95273.53;4958994;28;20481;-87
2022/03/25 06:38:05;;;;;;;7.55;3.63;;;;;;;7.89;33.33;95279.19;4943182;29;20027;-86
2022/03/25 06:40:31;;;;;;;6.70;3.30;;;;;;;7.98;33.13;95279.66;4942870;29;20035;-86
2022/03/25 06:42:57;;;;;;;8.50;3.50;;;;;;;8.06;33.90;95280.09;4960120;28;20038;-86
2022/03/25 06:45:24;;;;;;;8.52;3.35;;;;;;;8.16;35.39;95273.50;4959280;29;20035;-87
2022/03/25 06:47:49;;;;;;;6.18;3.17;;;;;;;8.21;35.12;95279.63;4959252;29;20065;-86
2022/03/25 06:50:16;;;;;;;6.38;3.45;;;;;;;8.17;36.20;95285.53;4926553;29;20110;-86
2022/03/25 06:52:42;;;;;;;8.63;3.17;;;;;;;8.14;36.22;95280.75;4960859;28;20510;-86
2022/03/25 06:55:08;;;;;;;6.72;3.28;;;;;;;7.99;37.54;95283.84;4965151;28;20030;-86
2022/03/25 06:57:34;;;;;;;7.10;3.05;;;;;;;8.07;38.26;95286.09;4980990;28;20034;-86
2022/03/25 07:00:00;;;;;;;9.10;3.97;;;;;;;7.93;40.03;95280.34;4964449;28;20026;-86
2022/03/25 07:02:25;;;;;;;7.47;3.33;;;;;;;8.00;39.12;95288.81;4998235;28;20118;-86
2022/03/25 07:04:51;;;;;;;8.48;3.78;;;;;;;8.11;37.49;95286.44;4998521;28;20038;-86
2022/03/25 07:07:26;;;;;;;8.75;3.35;;;;;;;8.17;36.38;95280.28;4998437;28;20069;-86
2022/03/25 07:09:52;;;;;;;8.57;3.47;;;;;;;8.37;36.79;95281.75;4981491;28;20026;-86
2022/03/25 07:12:18;;;;;;;6.68;3.55;;;;;;;8.54;36.13;95287.88;4964842;28;20026;-86
2022/03/25 07:14:44;;;;;;;9.68;3.72;;;;;;;8.56;39.15;95287.66;4981030;28;20404;-86
2022/03/25 07:17:09;;;;;;;7.22;3.53;;;;;;;8.48;38.29;95292.19;4980923;28;20390;-86
2022/03/25 07:19:35;;;;;;;6.10;3.13;;;;;;;8.69;35.76;95283.97;4980698;28;20049;-86
2022/03/25 07:22:01;;;;;;;6.05;3.47;;;;;;;8.87;33.39;95283.78;4997809;28;20355;-86
2022/03/25 07:24:26;;;;;;;8.05;3.88;;;;;;;9.00;34.58;95287.16;4964564;28;20438;-86
2022/03/25 07:26:52;;;;;;;5.93;3.40;;;;;;;9.11;32.77;95296.78;4980483;28;20022;-86
2022/03/25 07:29:17;;;;;;;9.00;3.67;;;;;;;9.13;35.61;95289.47;4980442;28;20045;-86
2022/03/25 07:31:44;;;;;;;6.63;3.55;;;;;;;9.13;35.45;95286.09;4964127;28;20084;-86
2022/03/25 07:34:09;;;;;;;6.50;3.28;;;;;;;9.15;35.82;95284.03;4980592;28;20030;-86
2022/03/25 07:36:35;;;;;;;8.40;3.60;;;;;;;9.28;38.07;95285.53;4980642;28;20034;-86
2022/03/25 07:39:05;;;;;;;6.32;3.38;;;;;;;9.55;35.67;95284.94;4981353;28;20354;-86
2022/03/25 07:41:30;;;;;;;9.18;3.75;;;;;;;9.63;36.69;95281.94;4998148;28;20037;-86
2022/03/25 07:43:56;;;;;;;7.85;3.90;;;;;;;9.85;35.02;95289.84;4980373;28;20030;-86
2022/03/25 07:46:23;;;;;;;6.55;3.13;;;;;;;9.87;36.42;95292.22;4997135;28;20061;-86
2022/03/25 07:48:49;;;;;;;6.20;3.33;;;;;;;9.87;35.29;95287.78;4980615;28;20443;-86
2022/03/25 07:51:15;;;;;;;10.32;3.70;;;;;;;9.93;35.39;95291.28;4979982;28;20030;-86
2022/03/25 07:53:40;;;;;;;5.57;3.30;;;;;;;10.11;33.76;95292.81;4997714;28;20039;-86
2022/03/25 07:56:06;;;;;;;6.53;3.70;;;;;;;10.21;33.56;95288.75;4980326;28;20034;-86
2022/03/25 07:58:32;;;;;;;6.43;3.40;;;;;;;10.23;33.68;95287.50;4980179;28;20030;-86
2022/03/25 08:00:57;;;;;;;7.78;4.28;;;;;;;10.19;35.87;95291.63;4996928;28;20458;-86
2022/03/25 08:03:23;;;;;;;10.48;4.25;;;;;;;10.35;33.94;95286.59;4963983;28;20026;-86
2022/03/25 08:05:50;;;;;;;12.32;5.95;;;;;;;10.33;34.16;95287.63;4997615;28;20157;-86
2022/03/25 08:08:17;;;;;;;14.38;6.45;;;;;;;10.49;34.64;95297.53;4980569;28;20033;-86
2022/03/25 08:10:43;;;;;;;24.30;6.60;;;;;;;10.63;34.97;95290.09;4963532;28;20324;-86
2022/03/25 08:13:09;;;;;;;15.38;6.78;;;;;;;10.83;32.51;95292.94;4997526;28;20041;-87
2022/03/25 08:15:35;;;;;;;14.93;7.57;;;;;;;10.89;33.33;95288.56;4980482;28;20117;-87
2022/03/25 08:18:05;;;;;;;13.52;6.70;;;;;;;10.75;34.18;95288.94;4977489;28;20446;-86
2022/03/25 08:20:41;;;;;;;12.63;7.78;;;;;;;10.98;34.05;95291.53;4948462;28;20031;-86
2022/03/25 08:28:55;;;;;;;17.52;9.23;;;;;;;11.40;33.40;95298.75;4963072;28;20478;-86
2022/03/25 08:31:24;;;;;;;19.27;8.65;;;;;;;11.45;34.39;95298.00;4960274;28;20043;-87
2022/03/25 08:33:50;;;;;;;15.38;8.23;;;;;;;11.67;35.76;95295.31;4961327;28;20452;-86
2022/03/25 08:36:17;;;;;;;25.23;8.77;;;;;;;11.74;36.65;95293.25;4960647;28;20050;-86
2022/03/25 08:38:42;;;;;;;17.08;9.07;;;;;;;11.81;35.53;95295.66;4960497;28;20027;-87
2022/03/25 08:41:08;;;;;;;24.08;11.63;;;;;;;11.93;34.95;95290.25;4944241;28;20423;-87
2022/03/25 08:43:33;;;;;;;19.58;9.30;;;;;;;12.01;31.66;95302.09;4960779;28;20058;-86
2022/03/25 08:45:59;;;;;;;19.80;9.30;;;;;;;12.16;34.67;95296.16;4960285;28;20058;-86
2022/03/25 08:48:26;;;;;;;21.80;10.75;;;;;;;12.27;33.68;95297.03;4944179;28;20023;-87
2022/03/25 08:50:51;;;;;;;24.42;10.30;;;;;;;12.27;32.52;95281.28;4960462;28;20031;-87
2022/03/25 08:53:17;;;;;;;16.92;9.65;;;;;;;12.46;32.64;95286.88;4978021;28;20038;-87
2022/03/25 08:55:43;;;;;;;18.63;9.45;;;;;;;12.45;32.50;95293.16;4960554;28;20038;-87
2022/03/25 08:58:08;;;;;;;18.08;8.75;;;;;;;12.39;31.32;95287.09;4961668;28;20424;-87
2022/03/25 09:00:34;;;;;;;16.38;8.82;;;;;;;12.37;29.63;95289.19;4964059;28;20034;-86
2022/03/25 09:02:59;;;;;;;18.98;8.85;;;;;;;12.31;32.54;95284.97;4963811;28;20030;-86
2022/03/25 09:05:24;;;;;;;17.70;8.50;;;;;;;12.41;32.30;95290.28;4963779;28;20432;-86
2022/03/25 09:07:50;;;;;;;21.95;9.00;;;;;;;12.48;31.85;95281.38;4963759;28;20035;-87
2022/03/25 09:10:16;;;;;;;23.88;12.05;;;;;;;12.76;30.78;95285.41;4963505;28;20351;-87
2022/03/25 09:12:43;;;;;;;19.95;9.82;;;;;;;12.93;30.72;95281.78;4964023;28;20026;-86
2022/03/25 09:15:09;;;;;;;16.38;8.82;;;;;;;13.17;31.16;95279.47;4981119;28;20125;-86
2022/03/25 09:17:35;;;;;;;30.48;12.70;;;;;;;13.16;29.25;95288.41;4963658;28;20026;-86
2022/03/25 09:20:03;;;;;;;19.10;10.07;;;;;;;13.15;32.92;95281.56;4962977;28;20034;-86
2022/03/25 09:22:30;;;;;;;24.35;10.43;;;;;;;13.18;30.92;95270.53;4963929;28;20197;-87
2022/03/25 09:24:56;;;;;;;31.02;12.38;;;;;;;13.31;32.96;95282.38;4964366;28;20038;-87
2022/03/25 09:27:21;;;;;;;29.55;12.63;;;;;;;13.64;31.42;95280.31;4963681;28;20031;-87
2022/03/25 09:29:47;;;;;;;28.00;12.73;;;;;;;13.62;30.85;95269.25;4980452;28;20026;-86
2022/03/25 09:32:12;;;;;;;26.75;12.50;;;;;;;14.17;31.17;95273.16;4980803;28;20038;-87
2022/03/25 09:37:22;;;;;;;23.38;11.77;;;;;;;14.02;30.83;95266.06;4966140;28;20097;-86
2022/03/25 09:39:48;;;;;;;24.55;11.57;;;;;;;14.18;30.39;95267.59;4980161;28;20034;-86
2022/03/25 09:42:15;;;;;;;23.88;12.23;;;;;;;14.02;31.30;95272.13;4963143;28;20047;-86
2022/03/25 09:44:41;;;;;;;22.98;11.88;;;;;;;14.08;31.04;95271.03;4962976;28;20078;-87
2022/03/25 09:47:07;;;;;;;23.05;12.43;;;;;;;14.12;30.37;95261.53;4963473;28;20037;-87
2022/03/25 09:49:33;;;;;;;24.60;12.73;;;;;;;14.23;30.26;95261.53;4963257;28;20341;-86
2022/03/25 09:51:59;;;;;;;22.90;12.07;;;;;;;14.31;33.91;95271.53;4962466;28;20034;-86
2022/03/25 09:54:24;;;;;;;22.55;11.63;;;;;;;14.30;30.85;95266.50;4963140;28;20038;-87
2022/03/25 09:56:50;;;;;;;21.73;11.80;;;;;;;14.53;30.45;95260.63;4963376;28;20101;-87
2022/03/25 09:59:17;;;;;;;28.63;11.93;;;;;;;14.69;31.06;95258.72;4963040;28;20459;-86
2022/03/25 10:01:43;;;;;;;22.08;11.38;;;;;;;14.39;32.52;95268.31;4962534;28;20039;-87
2022/03/25 10:04:08;;;;;;;23.73;11.38;;;;;;;14.41;31.99;95260.16;4962944;28;20030;-86
2022/03/25 10:06:46;;;;;;;24.58;11.57;;;;;;;14.31;30.21;95258.34;4962961;28;20325;-87
2022/03/25 10:09:21;;;;;;;24.00;12.82;;;;;;;14.29;32.80;95255.19;4962531;28;20054;-87
2022/03/25 10:11:46;;;;;;;26.30;12.18;;;;;;;14.32;32.59;95253.84;4962784;28;20088;-87
2022/03/25 10:14:28;;;;;;;29.83;13.57;;;;;;;14.50;30.03;95247.19;4963081;28;20042;-86
2022/03/25 10:16:54;;;;;;;29.10;13.18;;;;;;;14.81;31.07;95247.88;4963795;28;20035;-87
2022/03/25 10:19:21;;;;;;;29.20;13.05;;;;;;;14.87;31.12;95242.56;4980200;28;20415;-87
2022/03/25 10:21:52;;;;;;;28.15;13.18;;;;;;;15.03;28.63;95246.69;4962508;28;20045;-87
2022/03/25 10:24:35;;;;;;;26.75;13.30;;;;;;;14.78;27.76;95240.53;4979872;28;20177;-87
2022/03/25 10:27:05;;;;;;;26.63;13.00;;;;;;;14.95;30.94;95239.38;4962637;28;20089;-87
2022/03/25 10:29:30;;;;;;;29.42;12.55;;;;;;;14.75;27.34;95235.75;4962441;28;20039;-87
2022/03/25 10:32:10;;;;;;;24.65;11.85;;;;;;;14.99;29.04;95229.84;4979338;28;20034;-87
2022/03/25 10:34:39;;;;;;;21.17;12.18;;;;;;;15.13;27.70;95238.72;4946751;28;20196;-87
2022/03/25 10:37:09;;;;;;;22.73;11.60;;;;;;;15.06;28.92;95235.59;4946486;28;20033;-87
2022/03/25 10:39:34;;;;;;;21.02;12.05;;;;;;;14.89;27.49;95238.59;4962714;28;20034;-87
2022/03/25 10:42:02;;;;;;;27.50;13.10;;;;;;;14.72;26.71;95231.03;4979380;28;20049;-88
2022/03/25 10:44:41;;;;;;;26.45;13.80;;;;;;;14.95;27.88;95239.38;4962086;28;20439;-87
2022/03/25 10:47:21;;;;;;;27.55;12.43;;;;;;;15.07;27.93;95237.19;4962031;28;20031;-87
2022/03/25 10:49:48;;;;;;;23.13;12.70;;;;;;;15.31;29.21;95225.91;4962155;28;20027;-88
2022/03/25 10:52:22;;;;;;;23.30;13.13;;;;;;;14.95;26.94;95232.22;4962084;28;20027;-88
2022/03/25 10:54:47;;;;;;;27.30;13.55;;;;;;;15.05;31.04;95223.44;4946433;28;20459;-87
2022/03/25 10:57:15;;;;;;;26.13;13.32;;;;;;;15.33;31.60;95223.78;4961976;28;20037;-88
2022/03/25 10:59:40;;;;;;;26.52;13.02;;;;;;;15.30;27.41;95234.13;4978722;28;20034;-87
2022/03/25 11:02:07;;;;;;;28.45;14.18;;;;;;;15.15;27.00;95229.72;4977754;28;20042;-87
2022/03/25 11:04:34;;;;;;;30.95;14.68;;;;;;;15.01;27.08;95232.22;4965167;28;20030;-87
2022/03/25 11:07:02;;;;;;;25.42;13.88;;;;;;;14.95;28.17;95218.25;4981215;28;20030;-88
2022/03/25 11:09:29;;;;;;;28.48;14.02;;;;;;;15.29;27.86;95222.00;4981726;28;20041;-87
2022/03/25 11:11:56;;;;;;;29.33;14.48;;;;;;;15.32;27.69;95224.84;4980960;28;20041;-86
2022/03/25 11:14:22;;;;;;;34.25;13.90;;;;;;;15.53;29.72;95214.13;4980933;28;20034;-86
2022/03/25 11:16:55;;;;;;;30.55;13.55;;;;;;;15.65;26.94;95209.28;4953536;28;20060;-86
2022/03/25 11:19:21;;;;;;;;;;;;;;;15.65;26.77;95204.00;4945677;29;20027;-86
2022/03/25 11:21:48;;;;;;;22.73;12.82;;;;;;;15.83;33.29;95191.91;4941144;29;19966;-87
2022/03/25 11:24:39;;;;;;;26.35;13.90;;;;;;;15.94;27.26;95205.06;4941989;29;20071;-87
2022/03/25 11:27:25;;;;;;;24.65;13.52;;;;;;;16.02;27.19;95193.06;4942617;29;20098;-87
2022/03/25 11:29:54;;;;;;;33.45;14.55;;;;;;;15.91;29.88;95187.13;4942080;29;20054;-87
2022/03/25 11:32:20;;;;;;;26.85;13.48;;;;;;;15.76;30.13;95202.03;4942767;29;20038;-87
2022/03/25 11:34:54;;;;;;;25.38;13.52;;;;;;;15.84;32.18;95196.13;4942435;29;20114;-86
2022/03/25 11:37:25;;;;;;;25.17;14.55;;;;;;;15.88;28.74;95204.28;4958970;28;20035;-87
2022/03/25 11:40:25;;;;;;;28.88;14.20;;;;;;;16.03;28.17;95187.53;4941574;29;20503;-87
2022/03/25 11:42:58;;;;;;;29.05;14.13;;;;;;;15.84;27.86;95192.72;4954403;28;20058;-87
2022/03/25 11:45:24;;;;;;;29.83;14.50;;;;;;;15.84;28.48;95182.91;4942434;29;20039;-86
2022/03/25 11:48:02;;;;;;;31.95;14.85;;;;;;;16.00;27.85;95185.44;4941895;29;20027;-87
2022/03/25 11:50:44;;;;;;;30.08;14.30;;;;;;;15.67;27.94;95185.22;4958567;29;20043;-87
2022/03/25 11:53:12;;;;;;;27.73;15.15;;;;;;;15.79;28.55;95179.56;4941873;29;20420;-86
2022/03/25 11:56:04;;;;;;;31.40;14.60;;;;;;;15.92;28.11;95173.63;4959018;29;20352;-86
2022/03/25 11:58:32;;;;;;;27.67;12.70;;;;;;;15.87;27.17;95168.34;4925969;29;20038;-86
2022/03/25 12:01:17;;;;;;;31.42;13.77;;;;;;;16.11;27.38;95163.09;4941431;29;20046;-86
2022/03/25 12:03:50;;;;;;;26.10;13.45;;;;;;;16.48;31.82;95162.66;4941897;29;20356;-87
2022/03/25 12:06:17;;;;;;;29.20;13.70;;;;;;;16.50;28.30;95166.59;4942146;29;20343;-87
2022/03/25 12:08:55;;;;;;;29.23;13.88;;;;;;;16.85;31.46;95147.06;4925811;29;20455;-86
2022/03/25 12:11:47;;;;;;;25.42;14.15;;;;;;;16.65;28.50;95156.88;4958343;29;20042;-86
2022/03/25 12:14:12;;;;;;;28.27;13.65;;;;;;;16.78;29.27;95153.50;4941435;29;20449;-86
2022/03/25 12:16:44;;;;;;;30.00;14.23;;;;;;;17.01;27.94;95145.78;4925730;29;20035;-87
2022/03/25 12:19:42;;;;;;;30.58;14.90;;;;;;;16.47;28.86;95147.88;4958668;29;20091;-87
2022/03/25 12:22:20;;;;;;;26.02;14.07;;;;;;;16.37;28.91;95138.22;4925704;29;20137;-86
2022/03/25 12:24:47;;;;;;;27.60;13.00;;;;;;;16.66;27.06;95143.34;4941466;29;20035;-86
2022/03/25 12:27:13;;;;;;;28.70;14.23;;;;;;;16.73;28.16;95134.28;4925667;29;20035;-86
2022/03/25 12:29:39;;;;;;;26.70;13.05;;;;;;;16.30;27.46;95128.00;4962092;28;20034;-86
2022/03/25 12:32:07;;;;;;;23.13;11.38;;;;;;;16.60;26.62;95135.78;4960582;28;20069;-86
2022/03/25 12:34:44;;;;;;;26.58;14.02;;;;;;;16.53;29.73;95129.00;4948391;28;20031;-86
2022/03/25 12:37:11;;;;;;;29.75;14.52;;;;;;;16.63;30.82;95137.84;4964218;28;20329;-87
2022/03/25 12:39:37;;;;;;;30.40;15.23;;;;;;;16.37;32.13;95125.00;4964895;28;20122;-86
2022/03/25 12:42:11;;;;;;;33.33;15.05;;;;;;;16.07;29.22;95126.97;4964514;28;20125;-86
2022/03/25 12:44:37;;;;;;;28.02;14.02;;;;;;;15.86;28.02;95129.78;4948245;28;20057;-86
2022/03/25 12:47:03;;;;;;;29.33;14.73;;;;;;;15.99;28.62;95127.56;4964366;28;20043;-86
2022/03/25 12:49:29;;;;;;;25.77;14.23;;;;;;;16.24;29.15;95124.63;4964291;28;20038;-86
2022/03/25 12:51:59;;;;;;;35.72;15.68;;;;;;;16.38;28.91;95126.56;4963785;28;20419;-86
2022/03/25 12:54:29;;;;;;;35.25;14.73;;;;;;;16.44;29.21;95116.69;4948226;28;20340;-87
2022/03/25 12:57:01;;;;;;;29.38;14.75;;;;;;;16.48;28.12;95115.06;4964527;28;20114;-87
2022/03/25 12:59:34;;;;;;;25.25;13.55;;;;;;;16.70;28.33;95118.97;4964106;28;20026;-87
2022/03/25 13:02:06;;;;;;;;;;;;;;;16.84;29.46;95103.94;4964394;28;20049;-86
2022/03/25 13:04:31;;;;;;;30.55;13.93;;;;;;;16.93;29.55;95110.16;4981362;28;20330;-86
2022/03/25 13:07:18;;;;;;;30.73;14.60;;;;;;;17.13;31.18;95102.97;4981304;28;20042;-87
2022/03/25 13:09:55;;;;;;;31.98;15.77;;;;;;;17.18;28.60;95107.38;4962997;28;20347;-87
2022/03/25 13:12:40;;;;;;;30.25;15.05;;;;;;;16.75;32.73;95103.78;4981114;28;20026;-87
2022/03/25 13:15:08;;;;;;;32.80;15.20;;;;;;;17.06;28.75;95105.97;4963982;28;20050;-86
2022/03/25 13:17:38;;;;;;;31.40;15.32;;;;;;;16.53;29.14;95115.75;4947386;28;20039;-86
2022/03/25 13:20:14;;;;;;;33.92;16.23;;;;;;;16.82;30.59;95091.00;4980598;28;20034;-87
2022/03/25 13:23:03;;;;;;;35.60;15.90;;;;;;;16.63;28.87;95108.75;4980968;28;20046;-87
2022/03/25 13:25:36;;;;;;;31.80;16.27;;;;;;;16.88;29.08;95096.19;4963858;28;20069;-87
2022/03/25 13:28:03;;;;;;;32.05;16.67;;;;;;;17.04;28.50;95086.97;4980726;28;20031;-86
2022/03/25 13:30:30;;;;;;;30.02;14.95;;;;;;;17.06;32.61;95086.69;4963179;28;20051;-87
2022/03/25 13:33:00;;;;;;;30.00;14.98;;;;;;;16.73;28.65;95098.00;4963834;28;20038;-87
2022/03/25 13:35:52;;;;;;;33.72;16.58;;;;;;;16.48;28.67;95081.44;4980820;28;20069;-88
2022/03/25 13:38:21;;;;;;;32.90;16.17;;;;;;;16.44;28.66;95095.53;4953151;28;20042;-86
2022/03/25 13:40:48;;;;;;;33.67;15.75;;;;;;;16.47;29.11;95085.16;4963055;28;20048;-85
2022/03/25 13:43:16;;;;;;;34.45;16.67;;;;;;;16.66;28.44;95092.31;4963188;28;20077;-86
2022/03/25 13:45:42;;;;;;;32.80;16.73;;;;;;;16.53;28.66;95093.81;4962205;28;20093;-85
2022/03/25 13:48:14;;;;;;;28.20;15.57;;;;;;;16.82;30.83;95085.72;4980484;28;20043;-86
2022/03/25 13:50:54;;;;;;;32.17;16.52;;;;;;;17.26;30.26;95084.75;4980132;28;20038;-87
2022/03/25 13:53:36;;;;;;;34.05;16.85;;;;;;;16.99;28.31;95091.53;4963414;28;20034;-87
2022/03/25 13:56:10;;;;;;;35.42;16.90;;;;;;;16.65;28.80;95077.53;4963474;28;20121;-86
2022/03/25 13:58:37;;;;;;;36.15;17.98;;;;;;;16.91;28.32;95077.88;4980278;28;20034;-85
2022/03/25 14:01:03;;;;;;;31.50;15.40;;;;;;;17.02;27.97;95070.59;4962709;28;20058;-86
2022/03/25 14:03:31;;;;;;;30.67;15.98;;;;;;;17.12;30.37;95071.50;4946984;28;20031;-85
2022/03/25 14:06:15;;;;;;;29.10;15.25;;;;;;;17.50;29.95;95077.44;4962857;28;20026;-86
2022/03/25 14:08:41;;;;;;;34.47;15.82;;;;;;;17.75;29.22;95072.72;4962840;28;20094;-86
2022/03/25 14:11:07;;;;;;;35.00;16.27;;;;;;;17.65;27.69;95064.97;4962213;28;20077;-86
2022/03/25 14:13:34;;;;;;;31.67;16.38;;;;;;;17.39;27.95;95070.75;4962597;28;20052;-85
2022/03/25 14:16:18;;;;;;;32.42;15.73;;;;;;;17.57;28.68;95060.34;4976467;28;20113;-86
2022/03/25 14:18:51;;;;;;;33.80;15.57;;;;;;;17.57;27.78;95065.63;4927524;29;20126;-85
2022/03/25 14:21:31;;;;;;;31.25;15.98;;;;;;;17.70;28.26;95064.84;4942450;29;20066;-86
2022/03/25 14:26:43;;;;;;;32.00;15.77;;;;;;;18.07;28.94;95073.69;4956514;28;20126;-85
2022/03/25 14:29:09;;;;;;;34.25;16.20;;;;;;;17.64;28.30;95055.44;4962523;28;20030;-85
2022/03/25 14:31:36;;;;;;;30.50;14.63;;;;;;;17.80;29.23;95061.25;4961830;28;20057;-86
2022/03/25 14:34:03;;;;;;;24.92;14.57;;;;;;;18.05;27.60;95065.25;4979750;28;20347;-86